Abidjan, Ivory Coast

7:42 AM GMT on October 24, 2014 (GMT +0000)
Felix Houphouet-Boigny | Change Station
CLOSE
Current Station
Airport
Location: Abidjan,
Elevation: 26 ft
Nearby Weather Stations

Elev 26 ft 5.26 °N, 3.93 °W | Updated 12 minutes ago

Mostly Cloudy
Mostly Cloudy
81 °F
Feels Like 86 °F
N
7
Wind Variable Wind from WSW

Today
High -- | Low -- °F
--% Chance of Precip.
Yesterday
High -- | Low -- °F
Precip. -- in
6:00 AM 5:58 PM
New Moon, 0% visible
Pressure 29.89 in
Visibility 6.2 miles
Clouds Mostly Cloudy 900 ft
Mostly Cloudy 2500 ft
Heat Index 86 °F
Dew Point 75 °F
Humidity 84%
Rainfall 0.00 in
Snow Depth Not available.
UV 1 out of 12
Pollen Not available.
Air Quality Not available.
Flu Activity Not available.
METAR DIAP 240730Z 24006KT 9999 BKN009 BKN025 27/24 Q1012 TEMPO 3500 RA

More Conditions Fewer Conditions

Pressure 29.89 in
Visibility 6.2 miles
Clouds Mostly Cloudy 900 ft
Mostly Cloudy 2500 ft
Heat Index 86 °F
Dew Point 75 °F
Humidity 84%
Rainfall 0.00 in
Snow Depth Not available.
UV 1 out of 12
Pollen Not available.
Air Quality Not available.
Flu Activity Not available.
METAR DIAP 240730Z 24006KT 9999 BKN009 BKN025 27/24 Q1012 TEMPO 3500 RA

More Conditions Fewer Conditions

10-Day Weather Forecast

Almanac

Astronomy

Oct. 24, 2014 Rise Set
Actual Time 6:00 AM GMT 5:58 PM GMT
Civil Twilight 5:39 AM GMT 6:20 PM GMT
Nautical Twilight 5:15 AM GMT 6:44 PM GMT
Astronomical Twilight 4:50 AM GMT 7:09 PM GMT
Moon 6:22 AM GMT 6:36 PM GMT
Length of Visible Light 12h 40m
Length of Day
11h 57m
Tomorrow will be 0m 16s shorter.
New Moon, 0% of the Moon is Illuminated
Today
New Moon
Oct 30
First Quarter
Nov 6
Full
Nov 14
Last Quarter
Nov 22
New

Yesterday's Extremes

Country Highs Country Lows

Community

WunderPhotos

Upload Photos

1,764,512 photos uploaded!

WunderBlogs® & News

Nearby

Snow Depth

Not available.

Earthquake Activity

City Distance Mag. Time & Date
No recent earthquake activity has been reported nearby.
Minimum magnitude displayed is 2.5.

Coastal Water Temperatures

Place Temperature
No Stations Reporting

Nearby Weather Stations